createdAt,value
2018-09-21T00:00:05.173Z,0.00
2018-09-21T00:01:05.130Z,0.00
2018-09-21T00:02:05.087Z,0.00
2018-09-21T00:03:05.039Z,0.00
2018-09-21T00:04:04.995Z,0.00
2018-09-21T00:05:04.952Z,0.00
2018-09-21T00:06:04.916Z,0.00
2018-09-21T00:07:04.864Z,0.00
2018-09-21T00:08:04.821Z,0.00
2018-09-21T00:09:04.777Z,0.00
2018-09-21T00:10:04.733Z,0.00
2018-09-21T00:11:04.689Z,0.00
2018-09-21T00:12:04.647Z,0.00
2018-09-21T00:13:04.609Z,0.00
2018-09-21T00:14:04.558Z,0.00
2018-09-21T00:15:04.514Z,0.00
2018-09-21T00:16:04.470Z,0.00
2018-09-21T00:17:04.429Z,0.00
2018-09-21T00:18:04.386Z,0.00
2018-09-21T00:19:04.389Z,0.00
2018-09-21T00:20:04.295Z,0.00
2018-09-21T00:21:04.252Z,0.00
2018-09-21T00:22:04.207Z,0.00
2018-09-21T00:23:04.163Z,0.00
2018-09-21T00:24:04.120Z,0.00
2018-09-21T00:25:04.076Z,0.00
2018-09-21T00:26:04.033Z,0.00
2018-09-21T00:27:03.992Z,0.00
2018-09-21T00:28:03.945Z,0.00
2018-09-21T00:29:03.901Z,0.00
2018-09-21T00:30:03.857Z,0.00
2018-09-21T00:31:03.815Z,0.00
2018-09-21T00:32:03.769Z,0.00
2018-09-21T00:33:03.727Z,0.00
2018-09-21T00:34:03.682Z,0.00
2018-09-21T00:35:03.638Z,0.00
2018-09-21T00:36:03.594Z,0.00
2018-09-21T00:37:03.550Z,0.00
2018-09-21T00:38:03.507Z,0.00
2018-09-21T00:39:03.466Z,0.00
2018-09-21T00:40:03.418Z,0.00
2018-09-21T00:41:03.375Z,0.00
2018-09-21T00:42:03.331Z,0.00
2018-09-21T00:43:03.291Z,0.00
2018-09-21T00:44:03.245Z,0.00
2018-09-21T00:45:03.202Z,0.00
2018-09-21T00:46:03.156Z,0.00
2018-09-21T00:47:03.111Z,0.00
2018-09-21T00:48:03.072Z,0.00
2018-09-21T00:49:03.024Z,0.00
2018-09-21T00:50:02.981Z,0.00
2018-09-21T00:51:02.936Z,0.00
2018-09-21T00:52:02.896Z,0.00
2018-09-21T00:53:02.849Z,0.00
2018-09-21T00:54:02.809Z,0.00
2018-09-21T00:55:02.761Z,0.00
2018-09-21T00:56:02.717Z,0.00
2018-09-21T00:57:02.675Z,0.00
2018-09-21T00:58:02.629Z,0.00
2018-09-21T00:59:02.586Z,0.00
2018-09-21T01:00:02.541Z,0.00
2018-09-21T01:01:02.498Z,0.00
2018-09-21T01:02:02.454Z,0.00
2018-09-21T01:03:02.409Z,0.00
2018-09-21T01:04:02.365Z,0.00
2018-09-21T01:05:02.327Z,0.00
2018-09-21T01:06:02.279Z,0.00
2018-09-21T01:07:02.233Z,0.00
2018-09-21T01:08:02.190Z,0.00
2018-09-21T01:09:02.146Z,0.00
2018-09-21T01:10:02.103Z,0.00
2018-09-21T01:11:02.059Z,0.00
2018-09-21T01:12:02.067Z,0.00
2018-09-21T01:13:01.981Z,0.00
2018-09-21T01:14:01.927Z,0.00
2018-09-21T01:15:01.884Z,0.00
2018-09-21T01:16:01.839Z,0.00
2018-09-21T01:17:01.799Z,0.00
2018-09-21T01:18:01.754Z,0.00
2018-09-21T01:19:01.711Z,0.00
2018-09-21T01:20:01.665Z,0.00
2018-09-21T01:21:01.620Z,0.00
2018-09-21T01:22:01.577Z,0.00
2018-09-21T01:23:01.532Z,0.00
2018-09-21T01:24:01.488Z,0.00
2018-09-21T01:25:01.445Z,0.00
2018-09-21T01:26:01.401Z,0.00
2018-09-21T01:27:01.356Z,0.00
2018-09-21T01:28:01.313Z,0.00
2018-09-21T01:29:01.269Z,0.00
2018-09-21T01:30:01.226Z,0.00
2018-09-21T01:31:01.181Z,0.00
2018-09-21T01:32:01.137Z,0.00
2018-09-21T01:33:01.094Z,0.00
2018-09-21T01:34:01.052Z,0.00
2018-09-21T01:35:01.007Z,0.00
2018-09-21T01:36:00.962Z,0.00
2018-09-21T01:37:00.919Z,0.00
2018-09-21T01:38:00.875Z,0.00
2018-09-21T01:39:00.830Z,0.00
2018-09-21T01:40:00.792Z,0.00
2018-09-21T01:41:00.742Z,0.00
2018-09-21T01:42:00.701Z,0.00
2018-09-21T01:43:00.654Z,0.00
2018-09-21T01:44:00.611Z,0.00
2018-09-21T01:45:00.567Z,0.00
2018-09-21T01:46:00.522Z,0.00
2018-09-21T01:47:00.531Z,0.00
2018-09-21T01:48:00.436Z,0.00
2018-09-21T01:49:00.391Z,0.00
2018-09-21T01:50:00.347Z,0.00
2018-09-21T01:51:00.303Z,0.00
2018-09-21T01:52:00.260Z,0.00
2018-09-21T01:53:00.217Z,0.00
2018-09-21T01:54:00.173Z,0.00
2018-09-21T01:55:00.128Z,0.00
2018-09-21T01:56:00.085Z,0.00
2018-09-21T01:57:00.041Z,0.00
2018-09-21T01:57:59.997Z,0.00
2018-09-21T01:58:59.953Z,0.00
2018-09-21T01:59:59.909Z,0.00
2018-09-21T02:00:59.865Z,0.00
2018-09-21T02:01:59.822Z,0.00
2018-09-21T02:02:59.779Z,0.00
2018-09-21T02:03:59.733Z,0.00
2018-09-21T02:04:59.690Z,0.00
2018-09-21T02:05:59.646Z,0.00
2018-09-21T02:06:59.603Z,0.00
2018-09-21T02:07:59.558Z,0.00
2018-09-21T02:08:59.515Z,0.00
2018-09-21T02:09:59.471Z,0.00
2018-09-21T02:10:59.426Z,0.00
2018-09-21T02:11:59.384Z,0.00
2018-09-21T02:12:59.343Z,0.00
2018-09-21T02:13:59.298Z,0.00
2018-09-21T02:14:59.251Z,0.00
2018-09-21T02:15:59.207Z,0.00
2018-09-21T02:16:59.164Z,0.00
2018-09-21T02:17:59.120Z,0.00
2018-09-21T02:18:59.075Z,0.00
2018-09-21T02:19:59.032Z,0.00
2018-09-21T02:20:58.988Z,0.00
2018-09-21T02:21:58.947Z,0.00
2018-09-21T02:22:58.900Z,0.00
2018-09-21T02:23:58.856Z,0.00
2018-09-21T02:24:58.814Z,0.00
2018-09-21T02:25:58.769Z,0.00
2018-09-21T02:26:58.724Z,0.00
2018-09-21T02:27:58.680Z,0.00
2018-09-21T02:28:58.637Z,0.00
2018-09-21T02:29:58.593Z,0.00
2018-09-21T02:30:58.555Z,0.00
2018-09-21T02:31:58.505Z,0.00
2018-09-21T02:32:58.461Z,0.00
2018-09-21T02:33:58.418Z,0.00
2018-09-21T02:34:58.373Z,0.00
2018-09-21T02:35:58.330Z,0.00
2018-09-21T02:36:58.289Z,0.00
2018-09-21T02:37:58.242Z,0.00
2018-09-21T02:38:58.197Z,0.00
2018-09-21T02:39:58.153Z,0.00
2018-09-21T02:40:58.111Z,0.00
2018-09-21T02:41:58.068Z,0.00
2018-09-21T02:42:58.022Z,0.00
2018-09-21T02:43:57.978Z,0.00
2018-09-21T02:44:57.934Z,0.00
2018-09-21T02:45:57.891Z,0.00
2018-09-21T02:46:57.847Z,0.00
2018-09-21T02:47:57.802Z,0.00
2018-09-21T02:48:57.759Z,0.00
2018-09-21T02:49:57.715Z,0.00
2018-09-21T02:50:57.672Z,0.00
2018-09-21T02:51:57.628Z,0.00
2018-09-21T02:52:57.583Z,0.00
2018-09-21T02:53:57.539Z,0.00
2018-09-21T02:54:57.494Z,0.00
2018-09-21T02:55:57.451Z,0.00
2018-09-21T02:56:57.413Z,0.00
2018-09-21T02:57:57.365Z,0.00
2018-09-21T02:58:57.321Z,0.00
2018-09-21T02:59:57.275Z,0.00
2018-09-21T03:00:57.406Z,0.00
2018-09-21T03:01:57.189Z,0.00
2018-09-21T03:02:57.147Z,0.00
2018-09-21T03:03:57.099Z,0.00
2018-09-21T03:04:57.056Z,0.00
2018-09-21T03:05:57.012Z,0.00
2018-09-21T03:06:56.967Z,0.00
2018-09-21T03:07:56.924Z,0.00
2018-09-21T03:08:56.880Z,0.00
2018-09-21T03:09:56.836Z,0.00
2018-09-21T03:10:56.795Z,0.00
2018-09-21T03:11:56.748Z,0.00
2018-09-21T03:12:56.706Z,0.00
2018-09-21T03:13:56.660Z,0.00
2018-09-21T03:14:56.616Z,0.00
2018-09-21T03:15:56.575Z,0.00
2018-09-21T03:16:56.528Z,0.00
2018-09-21T03:17:56.485Z,0.00
2018-09-21T03:18:56.443Z,0.00
2018-09-21T03:19:56.397Z,0.00
2018-09-21T03:20:56.352Z,0.00
2018-09-21T03:21:56.309Z,0.00
2018-09-21T03:22:56.264Z,0.00
2018-09-21T03:23:56.221Z,0.00
2018-09-21T03:24:56.177Z,0.00
2018-09-21T03:25:56.133Z,0.00
2018-09-21T03:26:56.089Z,0.00
2018-09-21T03:27:56.044Z,0.00
2018-09-21T03:28:56.001Z,0.00
2018-09-21T03:29:55.957Z,0.00
2018-09-21T03:30:55.918Z,0.00
2018-09-21T03:31:55.869Z,0.00
2018-09-21T03:32:55.834Z,0.00
2018-09-21T03:33:55.781Z,0.00
2018-09-21T03:34:55.756Z,0.00
2018-09-21T03:35:55.693Z,0.00
2018-09-21T03:36:55.649Z,0.00
2018-09-21T03:37:55.605Z,0.00
2018-09-21T03:38:55.560Z,0.00
2018-09-21T03:39:55.542Z,0.00
2018-09-21T03:40:55.478Z,0.00
2018-09-21T03:41:55.429Z,0.00
2018-09-21T03:42:55.385Z,0.00
2018-09-21T03:43:55.349Z,0.00
2018-09-21T03:44:55.297Z,0.00
2018-09-21T03:45:55.253Z,0.00
2018-09-21T03:46:55.208Z,0.00
2018-09-21T03:47:55.165Z,0.00
2018-09-21T03:48:55.121Z,0.00
2018-09-21T03:49:55.077Z,0.00
2018-09-21T03:50:55.033Z,0.00
2018-09-21T03:51:54.989Z,0.00
2018-09-21T03:52:54.944Z,0.00
2018-09-21T03:53:54.901Z,0.00
2018-09-21T03:54:54.856Z,0.00
2018-09-21T03:55:54.812Z,0.00
2018-09-21T03:56:54.769Z,0.00
2018-09-21T03:57:54.725Z,0.00
2018-09-21T03:58:54.680Z,0.00
2018-09-21T03:59:54.636Z,0.00
2018-09-21T04:00:54.630Z,0.00
2018-09-21T04:01:54.550Z,0.00
2018-09-21T04:02:54.505Z,0.00
2018-09-21T04:03:54.461Z,0.00
2018-09-21T04:04:54.417Z,0.00
2018-09-21T04:05:54.373Z,0.00
2018-09-21T04:06:54.328Z,0.00
2018-09-21T04:07:54.286Z,0.00
2018-09-21T04:08:54.242Z,0.00
2018-09-21T04:09:54.197Z,0.00
2018-09-21T04:10:54.152Z,0.00
2018-09-21T04:11:54.108Z,0.00
2018-09-21T04:12:54.064Z,0.00
2018-09-21T04:13:54.020Z,0.00
2018-09-21T04:14:54.026Z,0.00
2018-09-21T04:15:53.932Z,0.00
2018-09-21T04:16:53.889Z,0.00
2018-09-21T04:17:53.844Z,0.00
2018-09-21T04:18:53.800Z,0.00
2018-09-21T04:19:53.758Z,0.00
2018-09-21T04:20:53.712Z,0.00
2018-09-21T04:21:53.668Z,0.00
2018-09-21T04:22:53.675Z,0.00
2018-09-21T04:23:53.580Z,0.00
2018-09-21T04:24:53.535Z,0.00
2018-09-21T04:25:53.491Z,0.00
2018-09-21T04:26:53.447Z,0.00
2018-09-21T04:27:53.405Z,0.00
2018-09-21T04:28:53.367Z,0.00
2018-09-21T04:29:53.316Z,0.00
2018-09-21T04:30:53.302Z,0.00
2018-09-21T04:31:53.227Z,0.00
2018-09-21T04:32:53.183Z,0.00
2018-09-21T04:33:53.139Z,0.00
2018-09-21T04:34:53.095Z,0.00
2018-09-21T04:35:53.053Z,0.00
2018-09-21T04:36:53.008Z,0.00
2018-09-21T04:37:52.963Z,0.00
2018-09-21T04:38:52.918Z,0.00
2018-09-21T04:39:52.875Z,0.00
2018-09-21T04:40:52.832Z,0.00
2018-09-21T04:41:52.787Z,0.00
2018-09-21T04:42:52.742Z,0.00
2018-09-21T04:43:52.698Z,0.00
2018-09-21T04:44:52.654Z,0.00
2018-09-21T04:45:52.712Z,0.00
2018-09-21T04:46:52.565Z,0.00
2018-09-21T04:47:52.522Z,0.00
2018-09-21T04:48:52.478Z,0.00
2018-09-21T04:49:52.435Z,0.00
2018-09-21T04:50:52.390Z,0.00
2018-09-21T04:51:52.345Z,0.00
2018-09-21T04:52:52.303Z,0.00
2018-09-21T04:53:52.260Z,0.00
2018-09-21T04:54:52.213Z,0.00
2018-09-21T04:55:52.170Z,0.00
2018-09-21T04:56:52.125Z,0.00
2018-09-21T04:57:52.084Z,0.00
2018-09-21T04:58:52.038Z,0.00
2018-09-21T04:59:51.994Z,0.00
2018-09-21T05:00:51.950Z,0.00
2018-09-21T05:01:51.907Z,0.00
2018-09-21T05:02:51.861Z,0.00
2018-09-21T05:03:51.817Z,0.00
2018-09-21T05:04:51.774Z,0.00
2018-09-21T05:05:51.733Z,0.00
2018-09-21T05:06:51.685Z,0.00
2018-09-21T05:07:51.645Z,0.00
2018-09-21T05:08:51.600Z,0.00
2018-09-21T05:09:51.554Z,0.00
2018-09-21T05:10:51.514Z,0.00
2018-09-21T05:11:51.467Z,0.00
2018-09-21T05:12:51.471Z,0.00
2018-09-21T05:13:51.493Z,0.00
2018-09-21T05:14:51.333Z,0.00
2018-09-21T05:15:51.290Z,0.00
2018-09-21T05:16:51.246Z,0.00
2018-09-21T05:17:51.202Z,0.00
2018-09-21T05:18:51.157Z,0.00
2018-09-21T05:19:51.172Z,0.00
2018-09-21T05:20:51.070Z,0.00
2018-09-21T05:21:51.027Z,0.00
2018-09-21T05:22:50.981Z,0.00
2018-09-21T05:23:50.938Z,0.00
2018-09-21T05:24:50.894Z,0.00
2018-09-21T05:25:50.851Z,0.00
2018-09-21T05:26:50.806Z,0.00
2018-09-21T05:27:50.763Z,0.00
2018-09-21T05:28:50.722Z,0.00
2018-09-21T05:29:50.675Z,0.00
2018-09-21T05:30:50.631Z,0.00
2018-09-21T05:31:50.586Z,0.00
2018-09-21T05:32:50.547Z,0.00
2018-09-21T05:33:50.499Z,0.00
2018-09-21T05:34:50.645Z,0.00
2018-09-21T05:35:50.410Z,0.00
2018-09-21T05:36:50.365Z,0.00
2018-09-21T05:37:50.323Z,0.00
2018-09-21T05:38:50.277Z,0.00
2018-09-21T05:39:50.234Z,0.00
2018-09-21T05:40:50.193Z,0.00
2018-09-21T05:41:50.147Z,0.00
2018-09-21T05:42:50.106Z,0.00
2018-09-21T05:43:50.058Z,0.00
2018-09-21T05:44:50.016Z,0.00
2018-09-21T05:45:49.970Z,0.00
2018-09-21T05:46:49.925Z,5.63
2018-09-21T05:47:49.882Z,5.63
2018-09-21T05:48:49.838Z,5.63
2018-09-21T05:49:49.795Z,5.63
2018-09-21T05:50:49.750Z,5.63
2018-09-21T05:51:49.709Z,5.63
2018-09-21T05:52:49.663Z,5.63
2018-09-21T05:53:49.618Z,5.63
2018-09-21T05:54:49.574Z,5.63
2018-09-21T05:55:49.537Z,5.63
2018-09-21T05:56:49.486Z,5.63
2018-09-21T05:57:49.442Z,5.63
2018-09-21T05:58:49.399Z,5.63
2018-09-21T05:59:49.354Z,5.63
2018-09-21T06:00:49.311Z,5.63
2018-09-21T06:02:49.279Z,5.63
2018-09-21T06:03:49.178Z,5.63
2018-09-21T06:04:49.135Z,5.63
2018-09-21T06:05:49.091Z,5.63
2018-09-21T06:06:49.046Z,5.63
2018-09-21T06:07:49.089Z,5.63
2018-09-21T06:08:48.960Z,5.63
2018-09-21T06:09:48.917Z,5.63
2018-09-21T06:10:48.870Z,5.63
2018-09-21T06:11:48.827Z,5.63
2018-09-21T06:12:48.783Z,5.63
2018-09-21T06:13:48.813Z,5.63
2018-09-21T06:14:48.695Z,11.25
2018-09-21T06:15:48.652Z,11.25
2018-09-21T06:16:48.608Z,11.25
2018-09-21T06:17:48.564Z,11.25
2018-09-21T06:18:48.519Z,11.25
2018-09-21T06:19:48.476Z,11.25
2018-09-21T06:20:48.435Z,11.25
2018-09-21T06:21:48.390Z,11.25
2018-09-21T06:22:48.352Z,11.25
2018-09-21T06:23:48.312Z,11.25
2018-09-21T06:24:48.256Z,11.25
2018-09-21T06:25:48.213Z,11.25
2018-09-21T06:26:48.175Z,28.13
2018-09-21T06:27:48.124Z,28.13
2018-09-21T06:28:48.131Z,28.13
2018-09-21T06:29:48.037Z,28.13
2018-09-21T06:30:47.993Z,33.75
2018-09-21T06:31:47.965Z,33.75
2018-09-21T06:32:47.906Z,33.75
2018-09-21T06:33:47.862Z,33.75
2018-09-21T06:34:47.817Z,39.38
2018-09-21T06:35:47.774Z,39.38
2018-09-21T06:36:47.730Z,61.88
2018-09-21T06:37:47.685Z,78.75
2018-09-21T06:38:47.640Z,78.75
2018-09-21T06:39:47.596Z,90.00
2018-09-21T06:40:47.556Z,95.63
2018-09-21T06:41:47.509Z,101.25
2018-09-21T06:42:47.465Z,106.88
2018-09-21T06:43:47.421Z,112.50
2018-09-21T06:44:47.377Z,101.25
2018-09-21T06:45:47.333Z,106.88
2018-09-21T06:46:47.291Z,106.88
2018-09-21T06:47:47.245Z,112.50
2018-09-21T06:48:47.201Z,112.50
2018-09-21T06:49:47.179Z,95.63
2018-09-21T06:50:47.121Z,90.00
2018-09-21T06:51:47.068Z,84.38
2018-09-21T06:52:47.026Z,90.00
2018-09-21T06:53:46.982Z,95.63
2018-09-21T06:54:46.938Z,90.00
2018-09-21T06:55:46.894Z,84.38
2018-09-21T06:56:46.852Z,78.75
2018-09-21T06:57:46.808Z,78.75
2018-09-21T06:58:46.764Z,73.13
2018-09-21T06:59:46.720Z,90.00
2018-09-21T07:00:46.678Z,95.63
2018-09-21T07:01:46.745Z,101.25
2018-09-21T07:02:46.589Z,106.88
2018-09-21T07:03:46.546Z,118.13
2018-09-21T07:04:46.503Z,135.00
2018-09-21T07:05:46.460Z,135.00
2018-09-21T07:06:46.416Z,146.25
2018-09-21T07:07:46.375Z,157.50
2018-09-21T07:08:46.330Z,157.50
2018-09-21T07:09:46.287Z,163.13
2018-09-21T07:10:46.243Z,168.75
2018-09-21T07:11:46.200Z,123.75
2018-09-21T07:12:46.160Z,61.88
2018-09-21T07:13:46.167Z,50.63
2018-09-21T07:14:46.070Z,45.00
2018-09-21T07:15:46.059Z,56.25
2018-09-21T07:16:45.984Z,50.63
2018-09-21T07:17:45.941Z,56.25
2018-09-21T07:18:45.900Z,50.63
2018-09-21T07:19:45.856Z,50.63
2018-09-21T07:20:45.811Z,39.38
2018-09-21T07:21:45.774Z,50.63
2018-09-21T07:22:45.725Z,45.00
2018-09-21T07:23:45.695Z,61.88
2018-09-21T07:24:45.638Z,45.00
2018-09-21T07:25:45.596Z,61.88
2018-09-21T07:26:45.552Z,61.88
2018-09-21T07:27:45.509Z,61.88
2018-09-21T07:28:45.466Z,45.00
2018-09-21T07:29:45.422Z,45.00
2018-09-21T07:30:45.433Z,45.00
2018-09-21T07:31:45.337Z,39.38
2018-09-21T07:32:45.291Z,56.25
2018-09-21T07:33:45.248Z,67.50
2018-09-21T07:34:45.204Z,67.50
2018-09-21T07:35:45.162Z,67.50
2018-09-21T07:36:45.117Z,50.63
2018-09-21T07:37:45.077Z,50.63
2018-09-21T07:38:45.031Z,45.00
2018-09-21T07:39:44.988Z,56.25
2018-09-21T07:40:44.948Z,67.50
2018-09-21T07:41:44.908Z,84.38
2018-09-21T07:42:44.858Z,118.13
2018-09-21T07:43:44.815Z,112.50
2018-09-21T07:44:44.772Z,90.00
2018-09-21T07:45:44.730Z,90.00
2018-09-21T07:46:44.687Z,112.50
2018-09-21T07:47:44.641Z,151.88
2018-09-21T07:48:44.648Z,174.38
2018-09-21T07:49:44.554Z,174.38
2018-09-21T07:50:44.511Z,185.63
2018-09-21T07:51:44.467Z,196.88
2018-09-21T07:52:44.427Z,247.50
2018-09-21T07:53:44.381Z,264.38
2018-09-21T07:54:44.338Z,281.25
2018-09-21T07:55:44.295Z,286.88
2018-09-21T07:56:44.252Z,292.50
2018-09-21T07:57:44.210Z,303.75
2018-09-21T07:58:44.167Z,298.13
2018-09-21T07:59:44.125Z,309.38
2018-09-21T08:00:44.082Z,309.38
2018-09-21T08:01:44.043Z,315.00
2018-09-21T08:02:43.998Z,315.00
2018-09-21T08:03:43.956Z,309.38
2018-09-21T08:04:43.915Z,315.00
2018-09-21T08:05:43.875Z,303.75
2018-09-21T08:06:43.835Z,264.38
2018-09-21T08:07:43.789Z,258.75
2018-09-21T08:08:43.749Z,264.38
2018-09-21T08:09:43.709Z,219.38
2018-09-21T08:10:43.667Z,219.38
2018-09-21T08:11:43.626Z,309.38
2018-09-21T08:12:43.613Z,320.63
2018-09-21T08:13:43.545Z,326.25
2018-09-21T08:14:43.503Z,331.88
2018-09-21T08:15:43.463Z,337.50
2018-09-21T08:16:43.422Z,315.00
2018-09-21T08:17:43.383Z,292.50
2018-09-21T08:18:43.341Z,281.25
2018-09-21T08:19:43.305Z,270.00
2018-09-21T08:20:43.260Z,343.13
2018-09-21T08:21:43.220Z,365.63
2018-09-21T08:22:43.179Z,371.25
2018-09-21T08:23:43.144Z,360.00
2018-09-21T08:24:43.101Z,331.88
2018-09-21T08:25:43.060Z,331.88
2018-09-21T08:26:43.064Z,337.50
2018-09-21T08:27:42.980Z,337.50
2018-09-21T08:28:42.949Z,348.75
2018-09-21T08:29:42.903Z,388.13
2018-09-21T08:30:42.860Z,399.38
2018-09-21T08:31:42.820Z,416.25
2018-09-21T08:32:42.781Z,421.88
2018-09-21T08:33:42.741Z,433.13
2018-09-21T08:34:42.730Z,450.00
2018-09-21T08:35:42.662Z,466.88
2018-09-21T08:36:42.624Z,466.88
2018-09-21T08:37:42.584Z,483.75
2018-09-21T08:38:42.561Z,472.50
2018-09-21T08:39:42.505Z,438.75
2018-09-21T08:40:42.467Z,393.75
2018-09-21T08:41:42.428Z,343.13
2018-09-21T08:42:42.408Z,258.75
2018-09-21T08:43:42.352Z,196.88
2018-09-21T08:44:42.313Z,168.75
2018-09-21T08:45:42.479Z,129.38
2018-09-21T08:46:42.240Z,67.50
2018-09-21T08:47:42.199Z,56.25
2018-09-21T08:48:42.156Z,50.63
2018-09-21T08:49:42.121Z,56.25
2018-09-21T08:50:42.079Z,56.25
2018-09-21T08:51:42.041Z,50.63
2018-09-21T08:52:42.103Z,50.63
2018-09-21T08:53:41.964Z,50.63
2018-09-21T08:54:41.924Z,50.63
2018-09-21T08:55:41.886Z,50.63
2018-09-21T08:56:41.846Z,45.00
2018-09-21T08:57:41.811Z,45.00
2018-09-21T08:58:42.083Z,45.00
2018-09-21T08:59:42.044Z,45.00
2018-09-21T09:00:42.015Z,45.00
2018-09-21T09:01:41.964Z,45.00
2018-09-21T09:02:41.641Z,45.00
2018-09-21T09:03:41.617Z,45.00
2018-09-21T09:04:41.526Z,39.38
2018-09-21T09:05:41.486Z,39.38
2018-09-21T09:06:41.444Z,39.38
2018-09-21T09:07:41.404Z,39.38
2018-09-21T09:08:41.413Z,39.38
2018-09-21T09:09:41.322Z,39.38
2018-09-21T09:10:41.283Z,39.38
2018-09-21T09:11:41.245Z,39.38
2018-09-21T09:12:41.199Z,39.38
2018-09-21T09:13:41.160Z,39.38
2018-09-21T09:14:41.115Z,33.75
2018-09-21T09:15:41.074Z,33.75
2018-09-21T09:16:41.033Z,33.75
2018-09-21T09:17:40.990Z,33.75
2018-09-21T09:18:40.953Z,33.75
2018-09-21T09:19:40.911Z,33.75
2018-09-21T09:20:40.866Z,33.75
2018-09-21T09:21:40.823Z,33.75
2018-09-21T09:22:40.784Z,33.75
2018-09-21T09:23:40.739Z,33.75
2018-09-21T09:24:40.762Z,33.75
2018-09-21T09:25:40.661Z,33.75
2018-09-21T09:26:40.613Z,33.75
2018-09-21T09:27:40.570Z,33.75
2018-09-21T09:28:40.562Z,28.13
2018-09-21T09:29:40.486Z,28.13
2018-09-21T09:30:40.443Z,28.13
2018-09-21T09:31:40.400Z,22.50
2018-09-21T09:32:40.359Z,28.13
2018-09-21T09:33:40.317Z,28.13
2018-09-21T09:34:40.273Z,28.13
2018-09-21T09:35:40.231Z,22.50
2018-09-21T09:36:40.224Z,28.13
2018-09-21T09:37:40.147Z,33.75
2018-09-21T09:38:40.108Z,33.75
2018-09-21T09:39:40.061Z,33.75
2018-09-21T09:40:40.019Z,28.13
2018-09-21T09:41:39.977Z,28.13
2018-09-21T09:42:39.947Z,28.13
2018-09-21T09:43:39.891Z,28.13
2018-09-21T09:44:39.849Z,28.13
2018-09-21T09:45:39.811Z,28.13
2018-09-21T09:46:39.763Z,28.13
2018-09-21T09:47:39.722Z,28.13
2018-09-21T09:48:39.774Z,28.13
2018-09-21T09:49:39.636Z,33.75
2018-09-21T09:50:39.593Z,33.75
2018-09-21T09:51:39.553Z,33.75
2018-09-21T09:52:39.508Z,33.75
2018-09-21T09:53:39.465Z,33.75
2018-09-21T09:54:39.462Z,28.13
2018-09-21T09:55:39.380Z,28.13
2018-09-21T09:56:39.337Z,28.13
2018-09-21T09:57:39.295Z,22.50
2018-09-21T09:58:39.251Z,28.13
2018-09-21T09:59:39.209Z,28.13
2018-09-21T10:00:39.167Z,28.13
2018-09-21T10:01:39.124Z,28.13
2018-09-21T10:02:39.081Z,28.13
2018-09-21T10:03:39.117Z,28.13
2018-09-21T10:04:39.044Z,28.13
2018-09-21T10:05:38.953Z,33.75
2018-09-21T10:06:38.910Z,33.75
2018-09-21T10:07:38.867Z,33.75
2018-09-21T10:08:38.825Z,33.75
2018-09-21T10:09:38.783Z,33.75
2018-09-21T10:10:38.740Z,33.75
2018-09-21T10:11:38.697Z,28.13
2018-09-21T10:12:38.655Z,28.13
2018-09-21T10:13:38.613Z,28.13
2018-09-21T10:14:38.569Z,28.13
2018-09-21T10:15:38.527Z,28.13
2018-09-21T10:16:38.483Z,28.13
2018-09-21T10:17:38.442Z,28.13
2018-09-21T10:18:38.399Z,28.13
2018-09-21T10:19:38.356Z,28.13
2018-09-21T10:20:38.371Z,33.75
2018-09-21T10:21:38.272Z,28.13
2018-09-21T10:22:38.228Z,28.13
2018-09-21T10:23:38.186Z,28.13
2018-09-21T10:24:38.143Z,28.13
2018-09-21T10:25:38.104Z,28.13
2018-09-21T10:26:38.062Z,33.75
2018-09-21T10:27:38.050Z,33.75
2018-09-21T10:28:38.162Z,33.75
2018-09-21T10:29:37.937Z,28.13
2018-09-21T10:30:37.886Z,28.13
2018-09-21T10:31:37.844Z,28.13
2018-09-21T10:32:37.801Z,28.13
2018-09-21T10:33:37.844Z,22.50
2018-09-21T10:34:37.787Z,28.13
2018-09-21T10:35:37.718Z,28.13
2018-09-21T10:36:37.631Z,28.13
2018-09-21T10:37:37.588Z,28.13
2018-09-21T10:38:37.552Z,28.13
2018-09-21T10:39:37.502Z,22.50
2018-09-21T10:40:37.460Z,22.50
2018-09-21T10:41:37.417Z,28.13
2018-09-21T10:42:37.520Z,28.13
2018-09-21T10:43:37.347Z,28.13
2018-09-21T10:44:37.289Z,28.13
2018-09-21T10:45:37.245Z,28.13
2018-09-21T10:46:37.203Z,22.50
2018-09-21T10:47:37.160Z,22.50
2018-09-21T10:48:37.116Z,28.13
2018-09-21T10:49:37.081Z,28.13
2018-09-21T10:50:37.032Z,33.75
2018-09-21T10:51:36.988Z,28.13
2018-09-21T10:52:36.957Z,28.13
2018-09-21T10:53:36.906Z,22.50
2018-09-21T10:54:36.860Z,22.50
2018-09-21T10:55:36.819Z,22.50
2018-09-21T10:56:36.776Z,28.13
2018-09-21T10:57:36.734Z,28.13
2018-09-21T10:58:36.723Z,28.13
2018-09-21T10:59:36.647Z,22.50
2018-09-21T11:00:36.722Z,22.50
2018-09-21T11:01:36.563Z,22.50
2018-09-21T11:02:36.520Z,22.50
2018-09-21T11:03:36.476Z,22.50
2018-09-21T11:04:36.440Z,16.88
2018-09-21T11:05:36.394Z,22.50
2018-09-21T11:06:36.349Z,22.50
2018-09-21T11:07:36.308Z,22.50
2018-09-21T11:08:36.263Z,22.50
2018-09-21T11:09:36.233Z,22.50
2018-09-21T11:10:36.182Z,22.50
2018-09-21T11:11:36.137Z,22.50
2018-09-21T11:12:36.093Z,22.50
2018-09-21T11:13:36.051Z,22.50
2018-09-21T11:14:36.007Z,22.50
2018-09-21T11:15:35.965Z,22.50
2018-09-21T11:16:35.922Z,22.50
2018-09-21T11:17:35.881Z,22.50
2018-09-21T11:18:35.837Z,28.13
2018-09-21T11:19:35.793Z,28.13
2018-09-21T11:20:35.752Z,22.50
2018-09-21T11:21:35.713Z,22.50
2018-09-21T11:22:35.666Z,22.50
2018-09-21T11:23:35.624Z,22.50
2018-09-21T11:24:35.581Z,22.50
2018-09-21T11:25:35.539Z,22.50
2018-09-21T11:26:35.549Z,22.50
2018-09-21T11:27:35.456Z,22.50
2018-09-21T11:28:35.411Z,22.50
2018-09-21T11:29:35.368Z,22.50
2018-09-21T11:30:35.325Z,16.88
2018-09-21T11:31:35.284Z,16.88
2018-09-21T11:32:35.242Z,11.25
2018-09-21T11:33:35.200Z,11.25
2018-09-21T11:34:35.154Z,11.25
2018-09-21T11:35:35.116Z,16.88
2018-09-21T11:36:35.069Z,16.88
2018-09-21T11:37:35.026Z,16.88
2018-09-21T11:38:34.984Z,16.88
2018-09-21T11:39:34.941Z,16.88
2018-09-21T11:40:34.900Z,16.88
2018-09-21T11:41:34.856Z,16.88
2018-09-21T11:42:34.813Z,22.50
2018-09-21T11:43:34.770Z,22.50
2018-09-21T11:44:34.728Z,22.50
2018-09-21T11:45:34.686Z,22.50
2018-09-21T11:46:34.671Z,16.88
2018-09-21T11:47:34.800Z,16.88
2018-09-21T11:48:34.557Z,16.88
2018-09-21T11:49:34.515Z,16.88
2018-09-21T11:50:34.472Z,16.88
2018-09-21T11:51:34.434Z,16.88
2018-09-21T11:52:34.390Z,16.88
2018-09-21T11:53:34.343Z,16.88
2018-09-21T11:54:34.302Z,16.88
2018-09-21T11:55:34.259Z,16.88
2018-09-21T11:56:34.220Z,22.50
2018-09-21T11:57:34.174Z,22.50
2018-09-21T11:58:34.130Z,22.50
2018-09-21T11:59:34.088Z,22.50
2018-09-21T12:00:34.045Z,22.50
2018-09-21T12:01:34.004Z,22.50
2018-09-21T12:02:34.060Z,16.88
2018-09-21T12:03:33.918Z,16.88
2018-09-21T12:04:33.875Z,16.88
2018-09-21T12:05:33.836Z,16.88
2018-09-21T12:06:33.790Z,16.88
2018-09-21T12:07:33.748Z,16.88
2018-09-21T12:08:33.705Z,16.88
2018-09-21T12:09:33.661Z,16.88
2018-09-21T12:10:33.659Z,16.88
2018-09-21T12:11:33.578Z,16.88
2018-09-21T12:12:33.536Z,16.88
2018-09-21T12:13:33.498Z,11.25
2018-09-21T12:14:33.449Z,11.25
2018-09-21T12:15:33.407Z,11.25
2018-09-21T12:16:33.363Z,11.25
2018-09-21T12:17:33.322Z,11.25
2018-09-21T12:18:33.278Z,11.25
2018-09-21T12:19:33.236Z,11.25
2018-09-21T12:20:33.194Z,11.25
2018-09-21T12:21:33.152Z,11.25
2018-09-21T12:22:33.173Z,11.25
2018-09-21T12:23:33.066Z,11.25
2018-09-21T12:24:33.023Z,16.88
2018-09-21T12:25:32.984Z,16.88
2018-09-21T12:26:32.937Z,16.88
2018-09-21T12:27:32.895Z,16.88
2018-09-21T12:28:32.852Z,16.88
2018-09-21T12:29:32.810Z,16.88
2018-09-21T12:30:32.768Z,16.88
2018-09-21T12:31:32.727Z,16.88
2018-09-21T12:32:32.682Z,16.88
2018-09-21T12:33:32.640Z,16.88
2018-09-21T12:34:32.596Z,16.88
2018-09-21T12:35:32.604Z,16.88
2018-09-21T12:36:32.542Z,16.88
2018-09-21T12:37:32.469Z,16.88
2018-09-21T12:38:32.431Z,16.88
2018-09-21T12:39:32.387Z,16.88
2018-09-21T12:40:32.346Z,5.63
2018-09-21T12:41:32.299Z,5.63
2018-09-21T12:42:32.316Z,5.63
2018-09-21T12:43:32.214Z,5.63
2018-09-21T12:44:32.194Z,5.63
2018-09-21T12:45:32.129Z,5.63
2018-09-21T12:46:32.085Z,5.63
2018-09-21T12:47:32.043Z,5.63
2018-09-21T12:48:32.002Z,5.63
2018-09-21T12:49:31.958Z,5.63
2018-09-21T12:50:32.137Z,5.63
2018-09-21T12:51:31.875Z,5.63
2018-09-21T12:52:31.830Z,5.63
2018-09-21T12:53:31.787Z,5.63
2018-09-21T12:54:31.745Z,5.63
2018-09-21T12:55:31.702Z,5.63
2018-09-21T12:56:31.669Z,5.63
2018-09-21T12:57:31.617Z,5.63
2018-09-21T12:58:31.687Z,5.63
2018-09-21T12:59:31.531Z,5.63
2018-09-21T13:00:31.489Z,5.63
2018-09-21T13:01:31.447Z,5.63
2018-09-21T13:02:31.457Z,5.63